createdAt,value
2022-10-23T00:01:13.159Z,4.97
2022-10-23T00:03:42.444Z,5.93
2022-10-23T00:06:11.304Z,5.90
2022-10-23T00:08:39.648Z,9.07
2022-10-23T00:11:09.193Z,7.83
2022-10-23T00:13:37.516Z,6.17
2022-10-23T00:16:05.770Z,8.03
2022-10-23T00:18:34.500Z,10.10
2022-10-23T00:21:04.087Z,8.10
2022-10-23T00:23:32.109Z,11.23
2022-10-23T00:26:00.317Z,8.70
2022-10-23T00:28:28.360Z,11.47
2022-10-23T00:30:56.363Z,9.20
2022-10-23T00:33:24.357Z,6.17
2022-10-23T00:35:52.243Z,6.40
2022-10-23T00:38:21.670Z,7.77
2022-10-23T00:43:25.955Z,16.23
2022-10-23T00:45:54.137Z,8.57
2022-10-23T00:48:22.263Z,9.57
2022-10-23T00:50:51.207Z,7.77
2022-10-23T00:53:22.155Z,9.93
2022-10-23T00:55:54.874Z,8.73
2022-10-23T00:58:23.018Z,10.60
2022-10-23T01:00:53.103Z,6.60
2022-10-23T01:03:24.413Z,10.33
2022-10-23T01:05:59.792Z,15.80
2022-10-23T01:08:35.863Z,10.13
2022-10-23T01:11:11.457Z,13.67
2022-10-23T01:13:45.703Z,6.07
2022-10-23T01:16:20.002Z,14.10
2022-10-23T01:18:56.924Z,9.97
2022-10-23T01:21:32.312Z,8.70
2022-10-23T01:24:11.612Z,5.13
2022-10-23T01:26:56.606Z,7.37
2022-10-23T01:29:33.028Z,8.10
2022-10-23T01:32:10.955Z,8.80
2022-10-23T01:34:53.901Z,4.30
2022-10-23T01:37:30.303Z,13.23
2022-10-23T01:40:05.551Z,8.53
2022-10-23T01:42:40.718Z,8.13
2022-10-23T01:45:16.461Z,10.20
2022-10-23T01:47:46.228Z,6.13
2022-10-23T01:50:18.379Z,7.63
2022-10-23T01:52:48.951Z,4.70
2022-10-23T01:55:18.716Z,6.97
2022-10-23T01:57:48.066Z,13.37
2022-10-23T02:00:20.193Z,5.50
2022-10-23T02:02:55.726Z,11.03
2022-10-23T02:05:31.251Z,6.07
2022-10-23T02:08:01.549Z,11.60
2022-10-23T02:10:34.447Z,18.37
2022-10-23T02:13:06.621Z,5.27
2022-10-23T02:15:40.697Z,5.07
2022-10-23T02:18:16.551Z,11.30
2022-10-23T02:20:48.538Z,6.77
2022-10-23T02:23:22.336Z,9.00
2022-10-23T02:25:56.456Z,10.43
2022-10-23T02:28:28.927Z,7.43
2022-10-23T02:31:05.084Z,12.30
2022-10-23T02:33:35.736Z,7.27
2022-10-23T02:36:03.824Z,9.67
2022-10-23T02:38:35.292Z,6.10
2022-10-23T02:41:16.859Z,7.73
2022-10-23T02:43:54.959Z,13.87
2022-10-23T02:46:28.888Z,7.93
2022-10-23T02:49:09.757Z,6.50
2022-10-23T02:51:46.476Z,4.43
2022-10-23T02:54:21.594Z,7.23
2022-10-23T02:56:59.861Z,2.37
2022-10-23T02:59:42.591Z,4.43
2022-10-23T03:02:22.549Z,8.33
2022-10-23T03:04:52.362Z,6.90
2022-10-23T03:07:22.070Z,9.80
2022-10-23T03:09:50.018Z,8.83
2022-10-23T03:12:17.958Z,11.73
2022-10-23T03:14:45.891Z,5.63
2022-10-23T03:17:15.355Z,11.53
2022-10-23T03:19:47.454Z,9.87
2022-10-23T03:22:15.393Z,4.57
2022-10-23T03:24:43.508Z,8.67
2022-10-23T03:27:12.144Z,9.50
2022-10-23T03:29:40.102Z,8.93
2022-10-23T03:32:08.176Z,4.23
2022-10-23T03:34:37.454Z,6.63
2022-10-23T03:37:05.972Z,2.90
2022-10-23T03:39:33.819Z,7.03
2022-10-23T03:42:02.143Z,6.80
2022-10-23T03:44:31.422Z,11.43
2022-10-23T03:47:00.635Z,6.43
2022-10-23T03:49:28.623Z,7.37
2022-10-23T03:52:04.437Z,5.23
2022-10-23T03:54:33.838Z,9.37
2022-10-23T03:57:02.285Z,11.97
2022-10-23T03:59:30.708Z,3.93
2022-10-23T04:02:00.254Z,3.93
2022-10-23T04:04:28.510Z,5.07
2022-10-23T04:06:56.848Z,5.70
2022-10-23T04:09:26.401Z,3.87
2022-10-23T04:11:56.412Z,8.57
2022-10-23T04:14:28.584Z,5.37
2022-10-23T04:16:56.843Z,13.80
2022-10-23T04:19:25.169Z,11.50
2022-10-23T04:21:57.159Z,2.70
2022-10-23T04:24:27.425Z,6.07
2022-10-23T04:26:55.351Z,9.73
2022-10-23T04:29:24.585Z,4.57
2022-10-23T04:31:52.748Z,7.67
2022-10-23T04:34:20.779Z,5.63
2022-10-23T04:36:48.684Z,5.43
2022-10-23T04:39:16.616Z,8.53
2022-10-23T04:41:45.942Z,5.57
2022-10-23T04:44:13.839Z,8.07
2022-10-23T04:46:41.945Z,4.37
2022-10-23T04:49:10.964Z,5.17
2022-10-23T04:51:57.347Z,7.10
2022-10-23T04:54:51.522Z,4.30
2022-10-23T04:57:34.038Z,8.90
2022-10-23T05:00:07.214Z,3.43
2022-10-23T05:02:42.551Z,3.80
2022-10-23T05:05:11.705Z,8.23
2022-10-23T05:08:08.941Z,5.20
2022-10-23T05:10:59.182Z,9.10
2022-10-23T05:13:28.721Z,4.00
2022-10-23T05:15:59.840Z,4.87
2022-10-23T05:18:31.923Z,8.33
2022-10-23T05:21:04.009Z,9.13
2022-10-23T05:23:37.574Z,3.77
2022-10-23T05:26:06.089Z,3.17
2022-10-23T05:28:35.503Z,8.60
2022-10-23T05:31:06.203Z,5.83
2022-10-23T05:33:37.497Z,5.30
2022-10-23T05:36:07.242Z,5.90
2022-10-23T05:38:36.690Z,4.63
2022-10-23T05:41:12.819Z,3.83
2022-10-23T05:43:42.068Z,8.13
2022-10-23T05:46:29.050Z,5.93
2022-10-23T05:49:12.765Z,7.10
2022-10-23T05:52:15.818Z,3.63
2022-10-23T05:55:02.395Z,3.53
2022-10-23T05:57:46.008Z,6.67
2022-10-23T06:00:18.761Z,4.00
2022-10-23T06:02:54.930Z,5.13
2022-10-23T06:05:35.075Z,5.93
2022-10-23T06:08:17.342Z,5.07
2022-10-23T06:10:46.010Z,7.97
2022-10-23T06:13:13.968Z,6.57
2022-10-23T06:15:43.798Z,6.37
2022-10-23T06:18:23.307Z,9.60
2022-10-23T06:21:01.567Z,11.97
2022-10-23T06:23:31.612Z,8.00
2022-10-23T06:26:02.440Z,3.67
2022-10-23T06:28:38.274Z,7.40
2022-10-23T06:31:08.809Z,4.97
2022-10-23T06:33:36.979Z,9.00
2022-10-23T06:36:08.271Z,8.67
2022-10-23T06:38:40.316Z,6.30
2022-10-23T06:41:14.838Z,6.67
2022-10-23T06:43:44.648Z,4.63
2022-10-23T06:46:37.392Z,9.27
2022-10-23T06:49:34.491Z,9.80
2022-10-23T06:52:03.423Z,6.03
2022-10-23T06:54:32.164Z,7.70
2022-10-23T06:57:17.981Z,7.47
2022-10-23T06:59:47.905Z,6.00
2022-10-23T07:02:18.263Z,5.43
2022-10-23T07:04:46.208Z,8.07
2022-10-23T07:07:18.598Z,5.77
2022-10-23T07:09:49.734Z,6.80
2022-10-23T07:12:38.705Z,12.93
2022-10-23T07:15:25.032Z,7.70
2022-10-23T07:17:54.788Z,6.37
2022-10-23T07:20:24.176Z,8.17
2022-10-23T07:22:53.261Z,9.73
2022-10-23T07:25:28.302Z,18.10
2022-10-23T07:27:56.613Z,13.87
2022-10-23T07:30:26.661Z,7.47
2022-10-23T07:33:00.248Z,10.40
2022-10-23T07:35:56.631Z,8.67
2022-10-23T07:38:29.159Z,10.40
2022-10-23T07:40:59.255Z,10.43
2022-10-23T07:43:28.092Z,14.53
2022-10-23T07:45:56.472Z,15.90
2022-10-23T07:48:31.365Z,10.33
2022-10-23T07:51:01.752Z,11.23
2022-10-23T07:53:31.019Z,25.57
2022-10-23T07:56:13.944Z,19.53
2022-10-23T07:59:08.089Z,14.13
2022-10-23T08:01:39.066Z,7.37
2022-10-23T08:04:08.546Z,8.33
2022-10-23T08:06:42.149Z,7.83
2022-10-23T08:09:10.670Z,8.13
2022-10-23T08:11:41.294Z,7.47
2022-10-23T08:14:11.431Z,11.03
2022-10-23T08:16:40.764Z,5.53
2022-10-23T08:19:19.092Z,7.53
2022-10-23T08:21:48.805Z,7.87
2022-10-23T08:24:17.923Z,4.30
2022-10-23T08:26:50.979Z,3.30
2022-10-23T08:29:22.729Z,7.40
2022-10-23T08:31:53.634Z,4.13
2022-10-23T08:34:49.089Z,10.47
2022-10-23T08:37:17.780Z,3.23
2022-10-23T08:39:48.096Z,4.40
2022-10-23T08:42:25.898Z,6.23
2022-10-23T08:45:07.039Z,5.87
2022-10-23T08:47:43.295Z,3.70
2022-10-23T08:50:35.609Z,4.80
2022-10-23T08:53:10.376Z,6.37
2022-10-23T08:55:42.618Z,2.67
2022-10-23T08:58:16.458Z,3.73
2022-10-23T09:00:45.654Z,3.10
2022-10-23T09:03:14.603Z,5.53
2022-10-23T09:05:56.285Z,4.93
2022-10-23T09:08:36.852Z,2.90
2022-10-23T09:11:12.612Z,3.13
2022-10-23T09:14:21.904Z,2.40
2022-10-23T09:17:01.299Z,2.40
2022-10-23T09:19:30.458Z,1.37
2022-10-23T09:22:00.530Z,1.63
2022-10-23T09:24:31.705Z,4.17
2022-10-23T09:27:01.513Z,2.87
2022-10-23T09:29:32.980Z,1.17
2022-10-23T09:32:04.008Z,1.00
2022-10-23T09:34:35.451Z,4.13
2022-10-23T09:37:23.278Z,2.17
2022-10-23T09:40:03.823Z,2.60
2022-10-23T09:42:36.095Z,1.43
2022-10-23T09:45:21.079Z,1.23
2022-10-23T09:47:51.123Z,2.23
2022-10-23T09:50:22.006Z,5.67
2022-10-23T09:52:56.396Z,1.00
2022-10-23T09:55:26.951Z,1.17
2022-10-23T09:57:56.322Z,1.00
2022-10-23T10:00:26.448Z,5.20
2022-10-23T10:03:00.691Z,1.33
2022-10-23T10:06:00.624Z,2.10
2022-10-23T10:08:42.195Z,2.50
2022-10-23T10:11:17.524Z,9.17
2022-10-23T10:14:04.283Z,4.67
2022-10-23T10:16:43.874Z,0.53
2022-10-23T10:19:20.194Z,0.57
2022-10-23T10:21:57.543Z,5.63
2022-10-23T10:24:33.846Z,1.30
2022-10-23T10:27:11.936Z,1.30
2022-10-23T10:29:50.779Z,1.87
2022-10-23T10:32:32.831Z,2.50
2022-10-23T10:35:13.242Z,1.33
2022-10-23T10:37:58.320Z,1.67
2022-10-23T10:40:33.172Z,0.80
2022-10-23T10:43:24.499Z,0.73
2022-10-23T10:46:01.139Z,2.57
2022-10-23T10:48:49.974Z,2.00
2022-10-23T10:51:26.019Z,0.87
2022-10-23T10:54:11.490Z,0.57
2022-10-23T10:56:43.481Z,1.97
2022-10-23T10:59:18.107Z,1.30
2022-10-23T11:01:52.310Z,3.77
2022-10-23T11:04:32.681Z,0.67
2022-10-23T11:07:06.714Z,2.00
2022-10-23T11:09:34.718Z,1.67
2022-10-23T11:12:04.571Z,1.27
2022-10-23T11:14:35.262Z,0.73
2022-10-23T11:17:10.071Z,0.53
2022-10-23T11:19:44.927Z,1.07
2022-10-23T11:22:22.915Z,0.50
2022-10-23T11:25:36.290Z,0.37
2022-10-23T11:28:22.730Z,0.73
2022-10-23T11:31:10.909Z,1.37
2022-10-23T11:33:59.152Z,3.77
2022-10-23T11:36:43.214Z,0.60
2022-10-23T11:39:20.644Z,1.20
2022-10-23T11:41:53.954Z,0.93
2022-10-23T11:44:40.485Z,3.80
2022-10-23T11:47:37.993Z,0.50
2022-10-23T11:50:27.628Z,6.60
2022-10-23T11:53:15.882Z,0.70
2022-10-23T11:56:06.692Z,2.93
2022-10-23T11:58:53.571Z,3.17
2022-10-23T12:01:34.944Z,0.43
2022-10-23T12:04:09.795Z,1.30
2022-10-23T12:06:41.703Z,0.70
2022-10-23T12:09:25.654Z,1.60
2022-10-23T12:12:05.615Z,1.93
2022-10-23T12:14:38.522Z,1.67
2022-10-23T12:17:31.574Z,0.60
2022-10-23T12:20:15.672Z,1.70
2022-10-23T12:22:49.307Z,1.00
2022-10-23T12:25:20.918Z,0.43
2022-10-23T12:27:54.521Z,0.40
2022-10-23T12:30:24.674Z,0.70
2022-10-23T12:33:09.160Z,0.80
2022-10-23T12:35:59.423Z,0.73
2022-10-23T12:38:33.865Z,0.53
2022-10-23T12:41:12.026Z,1.43
2022-10-23T12:43:42.145Z,1.77
2022-10-23T12:46:27.739Z,0.40
2022-10-23T12:48:58.025Z,5.23
2022-10-23T12:51:28.059Z,4.70
2022-10-23T12:53:56.611Z,1.77
2022-10-23T12:56:26.073Z,2.40
2022-10-23T12:58:57.071Z,1.10
2022-10-23T13:01:27.300Z,3.20
2022-10-23T13:04:03.492Z,2.20
2022-10-23T13:06:31.875Z,0.57
2022-10-23T13:09:00.171Z,1.17
2022-10-23T13:11:38.099Z,2.13
2022-10-23T13:14:13.076Z,5.23
2022-10-23T13:16:41.234Z,0.50
2022-10-23T13:19:24.322Z,1.23
2022-10-23T13:21:52.362Z,2.97
2022-10-23T13:24:21.815Z,1.37
2022-10-23T13:26:49.964Z,1.57
2022-10-23T13:29:21.701Z,2.23
2022-10-23T13:31:50.220Z,0.83
2022-10-23T13:34:27.671Z,2.10
2022-10-23T13:37:00.989Z,2.03
2022-10-23T13:39:31.362Z,0.67
2022-10-23T13:42:10.841Z,1.83
2022-10-23T13:44:39.168Z,1.10
2022-10-23T13:47:12.495Z,1.37
2022-10-23T13:49:41.812Z,1.33
2022-10-23T13:52:12.033Z,1.67
2022-10-23T13:54:40.008Z,1.23
2022-10-23T13:57:13.900Z,1.20
2022-10-23T13:59:41.900Z,1.77
2022-10-23T14:02:22.313Z,1.33
2022-10-23T14:04:52.412Z,2.30
2022-10-23T14:07:20.500Z,1.87
2022-10-23T14:09:50.564Z,2.10
2022-10-23T14:12:18.769Z,2.97
2022-10-23T14:14:51.104Z,1.27
2022-10-23T14:17:19.076Z,2.53
2022-10-23T14:19:47.112Z,2.60
2022-10-23T14:22:16.572Z,2.30
2022-10-23T14:24:44.477Z,2.17
2022-10-23T14:27:12.531Z,5.50
2022-10-23T14:29:41.798Z,7.03
2022-10-23T14:32:09.738Z,3.03
2022-10-23T14:34:42.013Z,5.13
2022-10-23T14:37:09.931Z,2.63
2022-10-23T14:39:39.226Z,5.80
2022-10-23T14:42:07.287Z,6.07
2022-10-23T14:44:35.181Z,2.67
2022-10-23T14:47:03.226Z,7.97
2022-10-23T14:49:31.543Z,5.13
2022-10-23T14:51:59.582Z,6.00
2022-10-23T14:54:29.276Z,10.07
2022-10-23T14:56:58.735Z,6.53
2022-10-23T14:59:26.832Z,10.73
2022-10-23T15:01:54.801Z,5.03
2022-10-23T15:04:22.985Z,6.73
2022-10-23T15:06:50.978Z,4.00
2022-10-23T15:09:20.272Z,4.27
2022-10-23T15:11:48.354Z,3.90
2022-10-23T15:14:17.610Z,5.10
2022-10-23T15:16:45.508Z,3.33
2022-10-23T15:19:18.449Z,3.63
2022-10-23T15:21:47.200Z,5.87
2022-10-23T15:24:16.092Z,3.67
2022-10-23T15:26:44.504Z,4.47
2022-10-23T15:29:14.436Z,2.17
2022-10-23T15:31:50.445Z,2.23
2022-10-23T15:34:21.014Z,2.70
2022-10-23T15:36:49.591Z,3.40
2022-10-23T15:39:20.716Z,5.07
2022-10-23T15:41:52.308Z,4.30
2022-10-23T15:44:21.904Z,5.60
2022-10-23T15:46:51.937Z,6.87
2022-10-23T15:49:20.786Z,5.07
2022-10-23T15:51:48.601Z,3.83
2022-10-23T15:54:19.101Z,7.40
2022-10-23T15:56:48.430Z,9.17
2022-10-23T15:59:17.046Z,10.87
2022-10-23T16:01:45.107Z,40.13
2022-10-23T16:04:16.093Z,33.40
2022-10-23T16:06:44.126Z,26.40
2022-10-23T16:09:13.150Z,18.53
2022-10-23T16:11:42.813Z,13.27
2022-10-23T16:14:13.644Z,13.97
2022-10-23T16:16:44.167Z,15.07
2022-10-23T16:19:14.171Z,15.23
2022-10-23T16:21:42.988Z,14.60
2022-10-23T16:24:11.652Z,9.80
2022-10-23T16:26:41.386Z,10.50
2022-10-23T16:29:10.369Z,31.37
2022-10-23T16:31:38.357Z,12.67
2022-10-23T16:34:07.026Z,10.37
2022-10-23T16:36:39.048Z,13.40
2022-10-23T16:39:21.031Z,11.50
2022-10-23T16:42:07.974Z,7.37
2022-10-23T16:44:56.711Z,12.83
2022-10-23T16:47:24.690Z,6.73
2022-10-23T16:49:52.647Z,10.17
2022-10-23T16:52:22.023Z,7.70
2022-10-23T16:54:49.948Z,13.10
2022-10-23T16:57:17.939Z,5.27
2022-10-23T16:59:45.944Z,9.77
2022-10-23T17:02:14.770Z,6.97
2022-10-23T17:04:42.915Z,8.97
2022-10-23T17:07:13.118Z,7.40
2022-10-23T17:09:45.220Z,4.20
2022-10-23T17:12:13.479Z,9.30
2022-10-23T17:14:41.620Z,5.47
2022-10-23T17:17:10.039Z,6.33
2022-10-23T17:19:45.659Z,4.93
2022-10-23T17:22:14.880Z,7.13
2022-10-23T17:24:47.418Z,6.70
2022-10-23T17:27:18.166Z,12.50
2022-10-23T17:29:46.151Z,12.00
2022-10-23T17:32:14.190Z,19.70
2022-10-23T17:34:42.144Z,23.93
2022-10-23T17:37:10.188Z,14.97
2022-10-23T17:39:38.145Z,16.77
2022-10-23T17:42:07.478Z,10.80
2022-10-23T17:44:35.379Z,10.77
2022-10-23T17:47:03.399Z,17.83
2022-10-23T17:49:31.312Z,13.00
2022-10-23T17:51:59.369Z,11.30
2022-10-23T17:54:28.465Z,13.77
2022-10-23T17:56:56.567Z,12.50
2022-10-23T17:59:25.845Z,12.97
2022-10-23T18:01:54.872Z,12.93
2022-10-23T18:04:22.936Z,15.40
2022-10-23T18:06:53.527Z,14.27
2022-10-23T18:09:22.293Z,14.93
2022-10-23T18:11:50.754Z,13.93
2022-10-23T18:14:20.361Z,12.40
2022-10-23T18:16:50.785Z,15.30
2022-10-23T18:19:19.654Z,9.67
2022-10-23T18:21:48.107Z,15.03
2022-10-23T18:24:16.646Z,14.67
2022-10-23T18:26:46.051Z,11.17
2022-10-23T18:29:14.588Z,11.53
2022-10-23T18:31:43.828Z,11.80
2022-10-23T18:34:16.665Z,12.20
2022-10-23T18:36:44.576Z,13.13
2022-10-23T18:39:15.314Z,10.10
2022-10-23T18:41:45.302Z,10.70
2022-10-23T18:44:16.599Z,14.43
2022-10-23T18:46:44.547Z,11.73
2022-10-23T18:49:14.220Z,12.70
2022-10-23T18:51:42.428Z,10.63
2022-10-23T18:54:16.209Z,10.57
2022-10-23T18:56:45.001Z,17.57
2022-10-23T18:59:16.937Z,18.13
2022-10-23T19:01:45.333Z,21.10
2022-10-23T19:04:17.611Z,16.23
2022-10-23T19:06:46.124Z,13.60
2022-10-23T19:09:15.159Z,15.77
2022-10-23T19:11:43.994Z,12.80
2022-10-23T19:14:12.303Z,11.97
2022-10-23T19:16:44.423Z,11.73
2022-10-23T19:19:19.711Z,12.30
2022-10-23T19:21:48.885Z,13.30
2022-10-23T19:24:20.977Z,14.13
2022-10-23T19:26:49.454Z,12.20
2022-10-23T19:29:20.297Z,10.43
2022-10-23T19:31:49.871Z,7.77
2022-10-23T19:34:20.419Z,8.73
2022-10-23T19:36:48.600Z,11.07
2022-10-23T19:39:17.298Z,15.90
2022-10-23T19:41:45.291Z,9.87
2022-10-23T19:44:14.926Z,17.87
2022-10-23T19:46:43.066Z,13.40
2022-10-23T19:49:11.653Z,8.57
2022-10-23T19:51:41.160Z,9.87
2022-10-23T19:54:10.574Z,16.40
2022-10-23T19:56:39.148Z,7.77
2022-10-23T19:59:07.096Z,7.60
2022-10-23T20:01:35.805Z,13.53
2022-10-23T20:04:03.945Z,9.93
2022-10-23T20:06:35.430Z,10.20
2022-10-23T20:09:07.995Z,20.63
2022-10-23T20:11:37.713Z,18.50
2022-10-23T20:14:06.152Z,17.60
2022-10-23T20:16:36.371Z,9.00
2022-10-23T20:19:07.276Z,10.40
2022-10-23T20:21:36.997Z,9.40
2022-10-23T20:24:07.112Z,8.97
2022-10-23T20:26:35.244Z,12.87
2022-10-23T20:29:03.140Z,11.63
2022-10-23T20:31:31.112Z,13.43
2022-10-23T20:33:58.977Z,11.13
2022-10-23T20:36:29.476Z,9.83
2022-10-23T20:38:58.799Z,9.03
2022-10-23T20:41:29.017Z,10.00
2022-10-23T20:43:57.446Z,8.93
2022-10-23T20:46:26.446Z,12.77
2022-10-23T20:48:54.798Z,14.83
2022-10-23T20:51:24.923Z,10.80
2022-10-23T20:53:55.307Z,12.23
2022-10-23T20:56:29.935Z,9.70
2022-10-23T20:59:00.256Z,14.70
2022-10-23T21:01:28.861Z,10.40
2022-10-23T21:03:58.133Z,14.57
2022-10-23T21:06:27.209Z,14.67
2022-10-23T21:08:56.622Z,16.70
2022-10-23T21:11:25.294Z,7.90
2022-10-23T21:13:55.889Z,18.13
2022-10-23T21:16:28.667Z,11.97
2022-10-23T21:18:57.252Z,16.93
2022-10-23T21:21:26.639Z,11.10
2022-10-23T21:23:56.897Z,9.00
2022-10-23T21:26:25.656Z,15.37
2022-10-23T21:29:16.945Z,8.43
2022-10-23T21:31:43.976Z,11.63
2022-10-23T21:37:10.848Z,7.50
2022-10-23T21:39:34.369Z,10.17
2022-10-23T21:42:02.335Z,13.40
2022-10-23T21:44:30.172Z,10.50
2022-10-23T21:46:59.458Z,5.87
2022-10-23T21:49:27.404Z,14.93
2022-10-23T21:51:55.775Z,9.80
2022-10-23T21:54:24.066Z,7.23
2022-10-23T21:56:54.842Z,7.50
2022-10-23T21:59:25.915Z,8.03
2022-10-23T22:01:55.911Z,12.37
2022-10-23T22:04:25.327Z,9.17
2022-10-23T22:06:53.869Z,10.00
2022-10-23T22:09:22.736Z,12.00
2022-10-23T22:11:51.498Z,7.37
2022-10-23T22:14:19.658Z,9.40
2022-10-23T22:16:48.379Z,8.87
2022-10-23T22:19:18.448Z,8.90
2022-10-23T22:21:48.976Z,6.53
2022-10-23T22:24:18.475Z,11.30
2022-10-23T22:26:49.263Z,9.27
2022-10-23T22:29:20.221Z,7.60
2022-10-23T22:31:49.814Z,10.20
2022-10-23T22:34:34.829Z,9.00
2022-10-23T22:37:10.930Z,5.77
2022-10-23T22:39:39.295Z,7.63
2022-10-23T22:42:07.196Z,9.03
2022-10-23T22:44:35.034Z,6.47
2022-10-23T22:47:02.929Z,8.13
2022-10-23T22:49:30.866Z,10.30
2022-10-23T22:51:58.795Z,3.20
2022-10-23T22:54:30.428Z,5.80
2022-10-23T22:56:58.574Z,8.50
2022-10-23T22:59:26.476Z,7.70
2022-10-23T23:01:54.386Z,3.83
2022-10-23T23:04:39.017Z,11.50
2022-10-23T23:07:08.202Z,6.20
2022-10-23T23:09:39.414Z,4.47
2022-10-23T23:12:08.606Z,6.80
2022-10-23T23:14:36.553Z,2.47
2022-10-23T23:17:04.711Z,3.60
2022-10-23T23:19:32.563Z,4.77
2022-10-23T23:22:01.009Z,3.60
2022-10-23T23:24:29.138Z,4.53
2022-10-23T23:26:58.441Z,11.67
2022-10-23T23:29:26.926Z,7.87
2022-10-23T23:31:54.940Z,3.77
2022-10-23T23:34:22.808Z,8.57
2022-10-23T23:36:50.852Z,10.03
2022-10-23T23:39:18.979Z,8.33
2022-10-23T23:41:46.816Z,11.70
2022-10-23T23:44:16.117Z,5.23
2022-10-23T23:46:44.006Z,3.47
2022-10-23T23:49:11.918Z,4.30
2022-10-23T23:51:39.787Z,4.90
2022-10-23T23:54:07.716Z,6.23
2022-10-23T23:56:36.213Z,3.50
2022-10-23T23:59:04.173Z,5.23
